RYR608L EGGP-EPSC
Flight info
| Callsign | RYR608L |
|---|---|
| Flight time | N/A |
| Altitude | 37000 |
| Route | BARTN1T BARTN L975 SONEX UL975 DESIG L603 LAMSO DCT BEDUM DCT HAM DCT BERIM L23 TORLO P46 FARCU FARCU1B |
| Aircraft | B38M/M-SDE1FGHILORVWXY/HB1 |
Departure
| Time | N/A |
|---|---|
| Airport | Liverpool John Lennon Airport (EGGP) |
Arrival
| Time | 2026-05-05 13:08 |
|---|---|
| Airport | Solidarity Szczecin–Goleniów Airport (EPSC) |
| Time | Latitude | Longitude | Altitude | Speed | Heading |
|---|---|---|---|---|---|
| 2026-05-05 12:44 | 53.75072 | 12.59854 | 30010 ft | 468 kts | 91° |
| 2026-05-05 12:45 | 53.75151 | 12.65340 | 29436 ft | 465 kts | 91° |
| 2026-05-05 12:45 | 53.75225 | 12.70761 | 28916 ft | 462 kts | 91° |
| 2026-05-05 12:45 | 53.75302 | 12.76167 | 28381 ft | 459 kts | 89° |
| 2026-05-05 12:45 | 53.75774 | 12.81520 | 27528 ft | 465 kts | 77° |
| 2026-05-05 12:46 | 53.76466 | 12.86894 | 26627 ft | 467 kts | 80° |
| 2026-05-05 12:46 | 53.77055 | 12.92245 | 25949 ft | 457 kts | 81° |
| 2026-05-05 12:46 | 53.77596 | 12.97385 | 25625 ft | 445 kts | 81° |
| 2026-05-05 12:46 | 53.78119 | 13.02512 | 25264 ft | 439 kts | 81° |
| 2026-05-05 12:47 | 53.78628 | 13.07586 | 24860 ft | 436 kts | 81° |
| 2026-05-05 12:47 | 53.79128 | 13.12605 | 24441 ft | 433 kts | 81° |
| 2026-05-05 12:47 | 53.79628 | 13.17656 | 24023 ft | 429 kts | 82° |
| 2026-05-05 12:47 | 53.80116 | 13.22614 | 23624 ft | 425 kts | 82° |
| 2026-05-05 12:48 | 53.80598 | 13.27531 | 23165 ft | 422 kts | 82° |
| 2026-05-05 12:48 | 53.81068 | 13.32338 | 22752 ft | 418 kts | 82° |
| 2026-05-05 12:48 | 53.81537 | 13.37159 | 22357 ft | 414 kts | 82° |
| 2026-05-05 12:48 | 53.82000 | 13.41947 | 21964 ft | 410 kts | 82° |
| 2026-05-05 12:49 | 53.82456 | 13.46680 | 21568 ft | 406 kts | 82° |
| 2026-05-05 12:49 | 53.82906 | 13.51361 | 21178 ft | 403 kts | 82° |
| 2026-05-05 12:49 | 53.83352 | 13.56031 | 20779 ft | 400 kts | 82° |
| 2026-05-05 12:49 | 53.83793 | 13.60669 | 20381 ft | 397 kts | 82° |
| 2026-05-05 12:50 | 53.84230 | 13.65273 | 19996 ft | 395 kts | 82° |
| 2026-05-05 12:50 | 53.84661 | 13.69846 | 19601 ft | 393 kts | 82° |
| 2026-05-05 12:50 | 53.85089 | 13.74401 | 19203 ft | 390 kts | 83° |
| 2026-05-05 12:50 | 53.85512 | 13.78921 | 18827 ft | 388 kts | 83° |
| 2026-05-05 12:51 | 53.85932 | 13.83427 | 18445 ft | 386 kts | 83° |
| 2026-05-05 12:51 | 53.86348 | 13.87911 | 18042 ft | 384 kts | 83° |
| 2026-05-05 12:51 | 53.86759 | 13.92354 | 17633 ft | 382 kts | 83° |
| 2026-05-05 12:51 | 53.87167 | 13.96793 | 17236 ft | 382 kts | 83° |
| 2026-05-05 12:52 | 53.87574 | 14.01227 | 16850 ft | 380 kts | 83° |
| 2026-05-05 12:52 | 53.87976 | 14.05635 | 16472 ft | 378 kts | 83° |
| 2026-05-05 12:52 | 53.88374 | 14.10019 | 16097 ft | 375 kts | 83° |
| 2026-05-05 12:52 | 53.88769 | 14.14383 | 15717 ft | 374 kts | 82° |
| 2026-05-05 12:53 | 53.89142 | 14.18732 | 15315 ft | 373 kts | 86° |
| 2026-05-05 12:53 | 53.88914 | 14.23060 | 14872 ft | 369 kts | 109° |
| 2026-05-05 12:53 | 53.88027 | 14.27117 | 14533 ft | 365 kts | 114° |
| 2026-05-05 12:53 | 53.87133 | 14.31107 | 14205 ft | 361 kts | 114° |
| 2026-05-05 12:54 | 53.85343 | 14.38967 | 13452 ft | 355 kts | 114° |
| 2026-05-05 12:54 | 53.84452 | 14.42852 | 13064 ft | 352 kts | 114° |
| 2026-05-05 12:54 | 53.83568 | 14.46694 | 12706 ft | 348 kts | 114° |
| 2026-05-05 12:55 | 53.82691 | 14.50497 | 12348 ft | 345 kts | 114° |
| 2026-05-05 12:55 | 53.81822 | 14.54258 | 11987 ft | 341 kts | 114° |
| 2026-05-05 12:55 | 53.80960 | 14.57984 | 11636 ft | 338 kts | 114° |
| 2026-05-05 12:55 | 53.80106 | 14.61668 | 11278 ft | 335 kts | 114° |
| 2026-05-05 12:56 | 53.79282 | 14.65215 | 10923 ft | 323 kts | 114° |
| 2026-05-05 12:56 | 53.78476 | 14.68678 | 10598 ft | 311 kts | 114° |
| 2026-05-05 12:56 | 53.77691 | 14.72052 | 10279 ft | 300 kts | 114° |
| 2026-05-05 12:56 | 53.76939 | 14.75190 | 10025 ft | 287 kts | 119° |
| 2026-05-05 12:57 | 53.75807 | 14.77866 | 9822 ft | 276 kts | 135° |
| 2026-05-05 12:57 | 53.74550 | 14.80317 | 9513 ft | 276 kts | 134° |
| 2026-05-05 12:57 | 53.73289 | 14.82788 | 9196 ft | 281 kts | 134° |
| 2026-05-05 12:57 | 53.72002 | 14.85301 | 8892 ft | 283 kts | 134° |
| 2026-05-05 12:58 | 53.70710 | 14.87822 | 8586 ft | 284 kts | 134° |
| 2026-05-05 12:58 | 53.69419 | 14.90336 | 8283 ft | 283 kts | 134° |
| 2026-05-05 12:58 | 53.68127 | 14.92849 | 7996 ft | 281 kts | 134° |
| 2026-05-05 12:58 | 53.66863 | 14.95304 | 7737 ft | 277 kts | 134° |
| 2026-05-05 12:59 | 53.65602 | 14.97752 | 7458 ft | 274 kts | 134° |
| 2026-05-05 12:59 | 53.64355 | 15.00171 | 7167 ft | 272 kts | 134° |
| 2026-05-05 12:59 | 53.63116 | 15.02572 | 6876 ft | 270 kts | 134° |
| 2026-05-05 13:00 | 53.60661 | 15.07320 | 6334 ft | 268 kts | 134° |
| 2026-05-05 13:00 | 53.59448 | 15.09663 | 5989 ft | 263 kts | 134° |
| 2026-05-05 13:01 | 53.55999 | 15.16314 | 5247 ft | 246 kts | 134° |
| 2026-05-05 13:01 | 53.54876 | 15.18476 | 5005 ft | 244 kts | 134° |
| 2026-05-05 13:01 | 53.53761 | 15.20619 | 4710 ft | 242 kts | 134° |
| 2026-05-05 13:01 | 53.52669 | 15.22703 | 4445 ft | 233 kts | 137° |
| 2026-05-05 13:02 | 53.51350 | 15.24066 | 4184 ft | 216 kts | 169° |
| 2026-05-05 13:02 | 53.49921 | 15.24055 | 4036 ft | 203 kts | 198° |
| 2026-05-05 13:02 | 53.48686 | 15.22990 | 3941 ft | 200 kts | 218° |
| 2026-05-05 13:02 | 53.47608 | 15.21613 | 3906 ft | 188 kts | 219° |
| 2026-05-05 13:03 | 53.46597 | 15.20265 | 3847 ft | 184 kts | 220° |
| 2026-05-05 13:03 | 53.45770 | 15.18686 | 3693 ft | 180 kts | 246° |
| 2026-05-05 13:03 | 53.45638 | 15.16634 | 3540 ft | 181 kts | 282° |
| 2026-05-05 13:03 | 53.46264 | 15.14805 | 3427 ft | 186 kts | 316° |
| 2026-05-05 13:04 | 53.47400 | 15.13740 | 3371 ft | 191 kts | 339° |
| 2026-05-05 13:04 | 53.48601 | 15.12847 | 3338 ft | 187 kts | 314° |
| 2026-05-05 13:04 | 53.49185 | 15.10999 | 3271 ft | 181 kts | 284° |
| 2026-05-05 13:04 | 53.49532 | 15.08972 | 2983 ft | 179 kts | 283° |
| 2026-05-05 13:05 | 53.49937 | 15.07020 | 2697 ft | 177 kts | 296° |
| 2026-05-05 13:05 | 53.50645 | 15.05335 | 2423 ft | 179 kts | 309° |
| 2026-05-05 13:05 | 53.51482 | 15.03725 | 2127 ft | 184 kts | 311° |
| 2026-05-05 13:05 | 53.52324 | 15.02122 | 1843 ft | 178 kts | 313° |
| 2026-05-05 13:06 | 53.53092 | 15.00638 | 1626 ft | 162 kts | 314° |
| 2026-05-05 13:06 | 53.53832 | 14.99213 | 1414 ft | 161 kts | 313° |
| 2026-05-05 13:06 | 53.54552 | 14.97815 | 1175 ft | 158 kts | 314° |
| 2026-05-05 13:06 | 53.55274 | 14.96418 | 955 ft | 158 kts | 314° |
| 2026-05-05 13:07 | 53.55991 | 14.95030 | 731 ft | 156 kts | 314° |
| 2026-05-05 13:07 | 53.56688 | 14.93695 | 507 ft | 152 kts | 313° |
| 2026-05-05 13:07 | 53.57378 | 14.92353 | 314 ft | 150 kts | 313° |
| 2026-05-05 13:07 | 53.58025 | 14.91088 | 160 ft | 136 kts | 313° |
| 2026-05-05 13:08 | 53.58527 | 14.90121 | 146 ft | 80 kts | 310° |
| 2026-05-05 13:08 | 53.58838 | 14.89516 | 143 ft | 58 kts | 311° |
| 2026-05-05 13:08 | 53.58995 | 14.89208 | 145 ft | 16 kts | 309° |
| 2026-05-05 13:08 | 53.59069 | 14.89131 | 145 ft | 11 kts | 12° |
| 2026-05-05 13:09 | 53.59127 | 14.89196 | 145 ft | 9 kts | 40° |
| 2026-05-05 13:09 | 53.59153 | 14.89235 | 145 ft | 0 kts | 42° |
| 2026-05-05 13:09 | 53.59160 | 14.89246 | 145 ft | 3 kts | 42° |
| 2026-05-05 13:10 | 53.59181 | 14.89280 | 145 ft | 6 kts | 45° |
| 2026-05-05 13:10 | 53.59200 | 14.89314 | 145 ft | 1 kts | 47° |
| 2026-05-05 13:10 | 53.59213 | 14.89337 | 145 ft | 5 kts | 46° |
| 2026-05-05 13:10 | 53.59234 | 14.89373 | 145 ft | 2 kts | 46° |
| 2026-05-05 13:11 | 53.59242 | 14.89388 | 145 ft | 0 kts | 46° |
| 2026-05-05 13:11 | 53.59244 | 14.89391 | 145 ft | 0 kts | 46° |